sensor_id;sensor_type;location;lat;lon;timestamp;pressure;altitude;pressure_sealevel;temperature;humidity
12951;BME280;6540;50.858;7.232;2023-03-05T00:02:12;51860.59;;;-142.34;27.21
12951;BME280;6540;50.858;7.232;2023-03-05T00:04:37;51860.59;;;-142.34;27.37
12951;BME280;6540;50.858;7.232;2023-03-05T00:07:03;51850.50;;;-142.34;27.25
12951;BME280;6540;50.858;7.232;2023-03-05T00:09:29;51850.50;;;-142.34;27.01
12951;BME280;6540;50.858;7.232;2023-03-05T00:11:55;51846.47;;;-142.34;27.10
12951;BME280;6540;50.858;7.232;2023-03-05T00:14:20;51872.69;;;-142.34;27.50
12951;BME280;6540;50.858;7.232;2023-03-05T00:16:45;51882.78;;;-142.34;28.07
12951;BME280;6540;50.858;7.232;2023-03-05T00:19:11;51826.31;;;-142.34;26.97
12951;BME280;6540;50.858;7.232;2023-03-05T00:21:38;51880.78;;;-142.34;27.22
12951;BME280;6540;50.858;7.232;2023-03-05T00:24:11;51856.56;;;-142.34;27.16
12951;BME280;6540;50.858;7.232;2023-03-05T00:26:37;51860.59;;;-142.34;27.60
12951;BME280;6540;50.858;7.232;2023-03-05T00:29:03;51842.44;;;-142.34;26.99
12951;BME280;6540;50.858;7.232;2023-03-05T00:31:30;51878.75;;;-142.34;27.52
12951;BME280;6540;50.858;7.232;2023-03-05T00:34:02;51870.69;;;-142.34;27.55
12951;BME280;6540;50.858;7.232;2023-03-05T00:36:28;51902.97;;;-142.34;27.27
12951;BME280;6540;50.858;7.232;2023-03-05T00:38:54;51868.66;;;-142.34;27.42
12951;BME280;6540;50.858;7.232;2023-03-05T00:41:20;51872.69;;;-142.34;27.71
12951;BME280;6540;50.858;7.232;2023-03-05T00:43:46;51860.59;;;-142.34;27.04
12951;BME280;6540;50.858;7.232;2023-03-05T00:46:11;51878.75;;;-142.34;27.08
12951;BME280;6540;50.858;7.232;2023-03-05T00:48:37;51868.66;;;-142.34;27.21
12951;BME280;6540;50.858;7.232;2023-03-05T00:51:02;51876.72;;;-142.34;27.11
12951;BME280;6540;50.858;7.232;2023-03-05T00:53:28;51862.63;;;-142.34;27.33
12951;BME280;6540;50.858;7.232;2023-03-05T00:55:53;51894.88;;;-142.34;26.95
12951;BME280;6540;50.858;7.232;2023-03-05T00:58:19;51907.00;;;-142.34;27.42
12951;BME280;6540;50.858;7.232;2023-03-05T01:00:44;51856.56;;;-142.34;28.19
12951;BME280;6540;50.858;7.232;2023-03-05T01:03:09;51842.44;;;-142.34;27.29
12951;BME280;6540;50.858;7.232;2023-03-05T01:05:35;51820.25;;;-142.34;27.22
12951;BME280;6540;50.858;7.232;2023-03-05T01:08:00;51874.72;;;-142.34;27.37
12951;BME280;6540;50.858;7.232;2023-03-05T01:10:26;51878.75;;;-142.34;28.40
12951;BME280;6540;50.858;7.232;2023-03-05T01:12:52;51846.47;;;-142.34;27.36
12951;BME280;6540;50.858;7.232;2023-03-05T01:15:18;51866.66;;;-142.34;26.89
12951;BME280;6540;50.858;7.232;2023-03-05T01:17:43;51878.75;;;-142.34;29.01
12951;BME280;6540;50.858;7.232;2023-03-05T01:20:11;51854.53;;;-142.34;27.41
12951;BME280;6540;50.858;7.232;2023-03-05T01:22:37;51907.00;;;-142.34;27.33
12951;BME280;6540;50.858;7.232;2023-03-05T01:25:03;51862.63;;;-142.34;29.15
12951;BME280;6540;50.858;7.232;2023-03-05T01:27:29;51907.00;;;-142.34;28.14
12951;BME280;6540;50.858;7.232;2023-03-05T01:29:54;51870.69;;;-142.34;27.06
12951;BME280;6540;50.858;7.232;2023-03-05T01:32:19;51874.72;;;-142.34;27.19
12951;BME280;6540;50.858;7.232;2023-03-05T01:34:45;51886.81;;;-142.34;27.19
12951;BME280;6540;50.858;7.232;2023-03-05T01:37:10;51882.78;;;-142.34;26.94
12951;BME280;6540;50.858;7.232;2023-03-05T01:39:35;51846.47;;;-142.34;27.14
12951;BME280;6540;50.858;7.232;2023-03-05T01:42:01;51890.84;;;-142.34;27.46
12951;BME280;6540;50.858;7.232;2023-03-05T01:44:29;51854.53;;;-142.34;27.30
12951;BME280;6540;50.858;7.232;2023-03-05T01:46:55;51880.78;;;-142.34;26.95
12951;BME280;6540;50.858;7.232;2023-03-05T01:49:28;51834.38;;;-142.34;27.63
12951;BME280;6540;50.858;7.232;2023-03-05T01:52:05;51880.78;;;-142.34;27.03
12951;BME280;6540;50.858;7.232;2023-03-05T01:54:44;51862.63;;;-142.34;28.18
12951;BME280;6540;50.858;7.232;2023-03-05T01:57:18;51902.97;;;-142.34;27.62
12951;BME280;6540;50.858;7.232;2023-03-05T01:59:47;51846.47;;;-142.34;27.97
12951;BME280;6540;50.858;7.232;2023-03-05T02:02:15;51902.97;;;-142.34;27.24
12951;BME280;6540;50.858;7.232;2023-03-05T02:04:49;51888.84;;;-142.34;26.87
12951;BME280;6540;50.858;7.232;2023-03-05T02:07:15;51888.84;;;-142.34;27.22
12951;BME280;6540;50.858;7.232;2023-03-05T02:09:41;51866.66;;;-142.34;27.22
12951;BME280;6540;50.858;7.232;2023-03-05T02:12:07;51898.94;;;-142.34;26.34
12951;BME280;6540;50.858;7.232;2023-03-05T02:14:34;51870.69;;;-142.34;26.95
12951;BME280;6540;50.858;7.232;2023-03-05T02:16:59;51878.75;;;-142.34;27.05
12951;BME280;6540;50.858;7.232;2023-03-05T02:19:25;51862.63;;;-142.34;27.45
12951;BME280;6540;50.858;7.232;2023-03-05T02:21:50;51872.69;;;-142.34;27.33
12951;BME280;6540;50.858;7.232;2023-03-05T02:24:18;51864.63;;;-142.34;29.37
12951;BME280;6540;50.858;7.232;2023-03-05T02:26:56;51876.72;;;-142.34;28.59
12951;BME280;6540;50.858;7.232;2023-03-05T02:29:22;51896.91;;;-142.34;27.58
12951;BME280;6540;50.858;7.232;2023-03-05T02:31:48;51870.69;;;-142.34;28.26
12951;BME280;6540;50.858;7.232;2023-03-05T02:34:13;51882.78;;;-142.34;26.98
12951;BME280;6540;50.858;7.232;2023-03-05T02:36:39;51870.69;;;-142.34;27.49
12951;BME280;6540;50.858;7.232;2023-03-05T02:39:04;51890.84;;;-142.34;27.55
12951;BME280;6540;50.858;7.232;2023-03-05T02:41:30;51866.66;;;-142.34;27.95
12951;BME280;6540;50.858;7.232;2023-03-05T02:43:55;51864.63;;;-142.34;27.04
12951;BME280;6540;50.858;7.232;2023-03-05T02:46:21;51866.66;;;-142.34;27.17
12951;BME280;6540;50.858;7.232;2023-03-05T02:48:46;51880.78;;;-142.34;27.36
12951;BME280;6540;50.858;7.232;2023-03-05T02:51:13;51888.84;;;-142.34;26.93
12951;BME280;6540;50.858;7.232;2023-03-05T02:53:38;51878.75;;;-142.34;26.73
12951;BME280;6540;50.858;7.232;2023-03-05T02:56:04;51864.63;;;-142.34;26.93
12951;BME280;6540;50.858;7.232;2023-03-05T02:58:29;51866.66;;;-142.34;27.09
12951;BME280;6540;50.858;7.232;2023-03-05T03:00:55;51876.72;;;-142.34;27.24
12951;BME280;6540;50.858;7.232;2023-03-05T03:03:20;51880.78;;;-142.34;27.25
12951;BME280;6540;50.858;7.232;2023-03-05T03:05:45;51868.66;;;-142.34;26.83
12951;BME280;6540;50.858;7.232;2023-03-05T03:08:11;51898.94;;;-142.34;27.32
12951;BME280;6540;50.858;7.232;2023-03-05T03:10:36;51886.81;;;-142.34;26.85
12951;BME280;6540;50.858;7.232;2023-03-05T03:13:02;51838.41;;;-142.34;28.10
12951;BME280;6540;50.858;7.232;2023-03-05T03:15:28;51864.63;;;-142.34;27.40
12951;BME280;6540;50.858;7.232;2023-03-05T03:17:53;51870.69;;;-142.34;27.00
12951;BME280;6540;50.858;7.232;2023-03-05T03:20:19;51866.66;;;-142.34;27.47
12951;BME280;6540;50.858;7.232;2023-03-05T03:22:45;51860.59;;;-142.34;27.22
12951;BME280;6540;50.858;7.232;2023-03-05T03:25:14;51876.72;;;-142.34;26.79
12951;BME280;6540;50.858;7.232;2023-03-05T03:27:40;51854.53;;;-142.34;27.25
12951;BME280;6540;50.858;7.232;2023-03-05T03:30:06;51870.69;;;-142.34;26.81
12951;BME280;6540;50.858;7.232;2023-03-05T03:32:32;51866.66;;;-142.34;27.10
12951;BME280;6540;50.858;7.232;2023-03-05T03:34:58;51886.81;;;-142.34;27.18
12951;BME280;6540;50.858;7.232;2023-03-05T03:37:23;51854.53;;;-142.34;27.72
12951;BME280;6540;50.858;7.232;2023-03-05T03:39:48;51862.63;;;-142.34;27.54
12951;BME280;6540;50.858;7.232;2023-03-05T03:42:18;51858.56;;;-142.34;27.64
12951;BME280;6540;50.858;7.232;2023-03-05T03:44:44;51884.81;;;-142.34;27.27
12951;BME280;6540;50.858;7.232;2023-03-05T03:47:10;51911.03;;;-142.34;27.22
12951;BME280;6540;50.858;7.232;2023-03-05T03:49:35;51898.94;;;-142.34;27.25
12951;BME280;6540;50.858;7.232;2023-03-05T03:52:00;51878.75;;;-142.34;27.07
12951;BME280;6540;50.858;7.232;2023-03-05T03:54:26;51862.63;;;-142.34;28.47
12951;BME280;6540;50.858;7.232;2023-03-05T03:56:51;51858.56;;;-142.34;27.89
12951;BME280;6540;50.858;7.232;2023-03-05T03:59:17;51882.78;;;-142.34;27.19
12951;BME280;6540;50.858;7.232;2023-03-05T04:01:42;51858.56;;;-142.34;27.54
12951;BME280;6540;50.858;7.232;2023-03-05T04:04:09;51884.81;;;-142.34;27.03
12951;BME280;6540;50.858;7.232;2023-03-05T04:06:36;51858.56;;;-142.34;27.31
12951;BME280;6540;50.858;7.232;2023-03-05T04:09:01;51878.75;;;-142.34;27.00
12951;BME280;6540;50.858;7.232;2023-03-05T04:11:27;51860.59;;;-142.34;26.80
12951;BME280;6540;50.858;7.232;2023-03-05T04:13:52;51911.03;;;-142.34;27.22
12951;BME280;6540;50.858;7.232;2023-03-05T04:16:17;51862.63;;;-142.34;27.82
12951;BME280;6540;50.858;7.232;2023-03-05T04:18:43;51868.66;;;-142.34;27.10
12951;BME280;6540;50.858;7.232;2023-03-05T04:21:09;51890.84;;;-142.34;28.06
12951;BME280;6540;50.858;7.232;2023-03-05T04:23:35;51882.78;;;-142.34;27.55
12951;BME280;6540;50.858;7.232;2023-03-05T04:26:00;51870.69;;;-142.34;26.92
12951;BME280;6540;50.858;7.232;2023-03-05T04:28:26;51868.66;;;-142.34;27.96
12951;BME280;6540;50.858;7.232;2023-03-05T04:30:52;51888.84;;;-142.34;27.88
12951;BME280;6540;50.858;7.232;2023-03-05T04:33:17;51866.66;;;-142.34;27.49
12951;BME280;6540;50.858;7.232;2023-03-05T04:35:43;51898.94;;;-142.34;27.26
12951;BME280;6540;50.858;7.232;2023-03-05T04:38:08;51878.75;;;-142.34;26.93
12951;BME280;6540;50.858;7.232;2023-03-05T04:40:34;51894.88;;;-142.34;26.87
12951;BME280;6540;50.858;7.232;2023-03-05T04:43:00;51890.84;;;-142.34;27.11
12951;BME280;6540;50.858;7.232;2023-03-05T04:45:25;51878.75;;;-142.34;26.88
12951;BME280;6540;50.858;7.232;2023-03-05T04:47:50;51894.88;;;-142.34;27.39
12951;BME280;6540;50.858;7.232;2023-03-05T04:50:16;51902.97;;;-142.34;26.93
12951;BME280;6540;50.858;7.232;2023-03-05T04:52:42;51866.66;;;-142.34;26.97
12951;BME280;6540;50.858;7.232;2023-03-05T04:55:09;51842.44;;;-142.34;26.99
12951;BME280;6540;50.858;7.232;2023-03-05T04:57:35;51840.41;;;-142.34;26.72
12951;BME280;6540;50.858;7.232;2023-03-05T05:00:00;51862.63;;;-142.34;27.01
12951;BME280;6540;50.858;7.232;2023-03-05T05:02:26;51892.88;;;-142.34;27.22
12951;BME280;6540;50.858;7.232;2023-03-05T05:04:54;51880.78;;;-142.34;26.81
12951;BME280;6540;50.858;7.232;2023-03-05T05:07:19;51874.72;;;-142.34;27.63
12951;BME280;6540;50.858;7.232;2023-03-05T05:09:45;51888.84;;;-142.34;27.10
12951;BME280;6540;50.858;7.232;2023-03-05T05:12:10;51874.72;;;-142.34;27.18
12951;BME280;6540;50.858;7.232;2023-03-05T05:14:36;51866.66;;;-142.34;27.36
12951;BME280;6540;50.858;7.232;2023-03-05T05:17:02;51858.56;;;-142.34;27.08
12951;BME280;6540;50.858;7.232;2023-03-05T05:19:31;51840.41;;;-142.34;26.41
12951;BME280;6540;50.858;7.232;2023-03-05T05:21:57;51888.84;;;-142.34;27.30
12951;BME280;6540;50.858;7.232;2023-03-05T05:24:22;51892.88;;;-142.34;27.17
12951;BME280;6540;50.858;7.232;2023-03-05T05:26:48;51896.91;;;-142.34;27.37
12951;BME280;6540;50.858;7.232;2023-03-05T05:29:13;51870.69;;;-142.34;27.43
12951;BME280;6540;50.858;7.232;2023-03-05T05:31:41;51870.69;;;-142.34;28.02
12951;BME280;6540;50.858;7.232;2023-03-05T05:34:07;51900.94;;;-142.34;28.31
12951;BME280;6540;50.858;7.232;2023-03-05T05:36:32;51874.72;;;-142.34;27.01
12951;BME280;6540;50.858;7.232;2023-03-05T05:38:58;51874.72;;;-142.34;27.24
12951;BME280;6540;50.858;7.232;2023-03-05T05:41:23;51902.97;;;-142.34;27.12
12951;BME280;6540;50.858;7.232;2023-03-05T05:43:49;51858.56;;;-142.34;27.14
12951;BME280;6540;50.858;7.232;2023-03-05T05:46:16;51872.69;;;-142.34;27.08
12951;BME280;6540;50.858;7.232;2023-03-05T05:48:42;51882.78;;;-142.34;27.02
12951;BME280;6540;50.858;7.232;2023-03-05T05:51:13;51846.47;;;-142.34;26.78
12951;BME280;6540;50.858;7.232;2023-03-05T05:53:39;51876.72;;;-142.34;26.66
12951;BME280;6540;50.858;7.232;2023-03-05T05:56:06;51866.66;;;-142.34;27.04
12951;BME280;6540;50.858;7.232;2023-03-05T05:58:33;51850.50;;;-142.34;27.16
12951;BME280;6540;50.858;7.232;2023-03-05T06:00:59;51894.88;;;-142.34;27.11
12951;BME280;6540;50.858;7.232;2023-03-05T06:03:24;51866.66;;;-142.34;27.06
12951;BME280;6540;50.858;7.232;2023-03-05T06:05:50;51923.13;;;-142.34;27.34
12951;BME280;6540;50.858;7.232;2023-03-05T06:08:16;51876.72;;;-142.34;27.30
12951;BME280;6540;50.858;7.232;2023-03-05T06:10:41;51898.94;;;-142.34;27.40
12951;BME280;6540;50.858;7.232;2023-03-05T06:13:07;51890.84;;;-142.34;27.28
12951;BME280;6540;50.858;7.232;2023-03-05T06:15:32;51902.97;;;-142.34;27.10
12951;BME280;6540;50.858;7.232;2023-03-05T06:17:58;51876.72;;;-142.34;27.34
12951;BME280;6540;50.858;7.232;2023-03-05T06:20:25;51868.66;;;-142.34;26.92
12951;BME280;6540;50.858;7.232;2023-03-05T06:22:52;51888.84;;;-142.34;27.42
12951;BME280;6540;50.858;7.232;2023-03-05T06:25:17;51894.88;;;-142.34;27.09
12951;BME280;6540;50.858;7.232;2023-03-05T06:27:42;51884.81;;;-142.34;27.18
12951;BME280;6540;50.858;7.232;2023-03-05T06:30:09;51854.53;;;-142.34;27.34
12951;BME280;6540;50.858;7.232;2023-03-05T06:32:35;51880.78;;;-142.34;27.10
12951;BME280;6540;50.858;7.232;2023-03-05T06:35:01;51880.78;;;-142.34;26.95
12951;BME280;6540;50.858;7.232;2023-03-05T06:37:26;51848.50;;;-142.34;27.20
12951;BME280;6540;50.858;7.232;2023-03-05T06:39:51;51886.81;;;-142.34;26.88
12951;BME280;6540;50.858;7.232;2023-03-05T06:42:17;51854.53;;;-142.34;27.40
12951;BME280;6540;50.858;7.232;2023-03-05T06:44:44;51874.72;;;-142.34;26.91
12951;BME280;6540;50.858;7.232;2023-03-05T06:47:10;51866.66;;;-142.34;27.02
12951;BME280;6540;50.858;7.232;2023-03-05T06:49:38;51878.75;;;-142.34;26.75
12951;BME280;6540;50.858;7.232;2023-03-05T06:52:05;51904.97;;;-142.34;26.99
12951;BME280;6540;50.858;7.232;2023-03-05T06:54:31;51886.81;;;-142.34;27.02
12951;BME280;6540;50.858;7.232;2023-03-05T06:56:56;51886.81;;;-142.34;26.69
12951;BME280;6540;50.858;7.232;2023-03-05T06:59:22;51892.88;;;-142.34;26.88
12951;BME280;6540;50.858;7.232;2023-03-05T07:01:48;51902.97;;;-142.34;27.02
12951;BME280;6540;50.858;7.232;2023-03-05T07:04:13;51862.63;;;-142.34;27.09
12951;BME280;6540;50.858;7.232;2023-03-05T07:06:40;51907.00;;;-142.34;27.00
12951;BME280;6540;50.858;7.232;2023-03-05T07:09:12;51894.88;;;-142.34;27.18
12951;BME280;6540;50.858;7.232;2023-03-05T07:11:39;51876.72;;;-142.34;27.36
12951;BME280;6540;50.858;7.232;2023-03-05T07:14:04;51870.69;;;-142.34;27.35
12951;BME280;6540;50.858;7.232;2023-03-05T07:16:31;51846.47;;;-142.34;26.97
12951;BME280;6540;50.858;7.232;2023-03-05T07:18:58;51856.56;;;-142.34;27.22
12951;BME280;6540;50.858;7.232;2023-03-05T07:21:26;51868.66;;;-142.34;27.37
12951;BME280;6540;50.858;7.232;2023-03-05T07:23:53;51852.53;;;-142.34;26.83
12951;BME280;6540;50.858;7.232;2023-03-05T07:26:19;51882.78;;;-142.34;26.98
12951;BME280;6540;50.858;7.232;2023-03-05T07:28:45;51870.69;;;-142.34;26.88
12951;BME280;6540;50.858;7.232;2023-03-05T07:31:15;51840.41;;;-142.34;27.32
12951;BME280;6540;50.858;7.232;2023-03-05T07:33:43;51862.63;;;-142.34;27.12
12951;BME280;6540;50.858;7.232;2023-03-05T07:36:10;51856.56;;;-142.34;27.62
12951;BME280;6540;50.858;7.232;2023-03-05T07:38:36;51890.84;;;-142.34;27.75
12951;BME280;6540;50.858;7.232;2023-03-05T07:41:06;51884.81;;;-142.34;28.12
12951;BME280;6540;50.858;7.232;2023-03-05T07:43:32;51913.03;;;-142.34;27.15
12951;BME280;6540;50.858;7.232;2023-03-05T07:45:57;51870.69;;;-142.34;27.18
12951;BME280;6540;50.858;7.232;2023-03-05T07:48:23;51872.69;;;-142.34;28.07
12951;BME280;6540;50.858;7.232;2023-03-05T07:50:49;51892.88;;;-142.34;27.02
12951;BME280;6540;50.858;7.232;2023-03-05T07:53:15;51898.94;;;-142.34;27.18
12951;BME280;6540;50.858;7.232;2023-03-05T07:55:44;51820.25;;;-142.34;27.85
12951;BME280;6540;50.858;7.232;2023-03-05T07:58:11;51894.88;;;-142.34;28.62
12951;BME280;6540;50.858;7.232;2023-03-05T08:00:37;51886.81;;;-142.34;27.98
12951;BME280;6540;50.858;7.232;2023-03-05T08:03:03;51898.94;;;-142.34;27.67
12951;BME280;6540;50.858;7.232;2023-03-05T08:05:29;51870.69;;;-142.34;27.39
12951;BME280;6540;50.858;7.232;2023-03-05T08:07:54;51896.91;;;-142.34;27.48
12951;BME280;6540;50.858;7.232;2023-03-05T08:10:19;51894.88;;;-142.34;26.73
12951;BME280;6540;50.858;7.232;2023-03-05T08:12:45;51874.72;;;-142.34;28.05
12951;BME280;6540;50.858;7.232;2023-03-05T08:15:10;51888.84;;;-142.34;28.16
12951;BME280;6540;50.858;7.232;2023-03-05T08:17:36;51858.56;;;-142.34;28.90
12951;BME280;6540;50.858;7.232;2023-03-05T08:20:02;51858.56;;;-142.34;28.75
12951;BME280;6540;50.858;7.232;2023-03-05T08:22:32;51888.84;;;-142.34;29.17
12951;BME280;6540;50.858;7.232;2023-03-05T08:24:58;51890.84;;;-142.34;29.71
12951;BME280;6540;50.858;7.232;2023-03-05T08:27:23;51876.72;;;-142.34;29.73
12951;BME280;6540;50.858;7.232;2023-03-05T08:29:49;51874.72;;;-142.34;29.02
12951;BME280;6540;50.858;7.232;2023-03-05T08:32:14;51860.59;;;-142.34;30.22
12951;BME280;6540;50.858;7.232;2023-03-05T08:34:39;51882.78;;;-142.34;28.83
12951;BME280;6540;50.858;7.232;2023-03-05T08:37:05;51880.78;;;-142.34;29.86
12951;BME280;6540;50.858;7.232;2023-03-05T08:39:31;51888.84;;;-142.34;29.24
12951;BME280;6540;50.858;7.232;2023-03-05T08:41:57;51874.72;;;-142.34;28.99
12951;BME280;6540;50.858;7.232;2023-03-05T08:44:22;51902.97;;;-142.34;28.17
12951;BME280;6540;50.858;7.232;2023-03-05T08:46:48;51911.03;;;-142.34;28.37
12951;BME280;6540;50.858;7.232;2023-03-05T08:49:13;51894.88;;;-142.34;28.11
12951;BME280;6540;50.858;7.232;2023-03-05T08:51:38;51874.72;;;-142.34;26.81
12951;BME280;6540;50.858;7.232;2023-03-05T08:54:04;51882.78;;;-142.34;27.85
12951;BME280;6540;50.858;7.232;2023-03-05T08:56:33;51882.78;;;-142.34;29.87
12951;BME280;6540;50.858;7.232;2023-03-05T08:58:58;51902.97;;;-142.34;29.97
12951;BME280;6540;50.858;7.232;2023-03-05T09:01:23;51882.78;;;-142.34;29.80
12951;BME280;6540;50.858;7.232;2023-03-05T09:03:49;51902.97;;;-142.34;28.12
12951;BME280;6540;50.858;7.232;2023-03-05T09:06:14;51886.81;;;-142.34;28.90
12951;BME280;6540;50.858;7.232;2023-03-05T09:08:40;51876.72;;;-142.34;29.56
12951;BME280;6540;50.858;7.232;2023-03-05T09:11:07;51931.19;;;-142.34;27.80
12951;BME280;6540;50.858;7.232;2023-03-05T09:13:33;51888.84;;;-142.34;28.85
12951;BME280;6540;50.858;7.232;2023-03-05T09:16:01;51886.81;;;-142.34;28.78
12951;BME280;6540;50.858;7.232;2023-03-05T09:18:27;51902.97;;;-142.34;29.25
12951;BME280;6540;50.858;7.232;2023-03-05T09:20:52;51904.97;;;-142.34;30.02
12951;BME280;6540;50.858;7.232;2023-03-05T09:23:19;51886.81;;;-142.34;28.97
12951;BME280;6540;50.858;7.232;2023-03-05T09:25:44;51892.88;;;-142.34;28.88
12951;BME280;6540;50.858;7.232;2023-03-05T09:28:10;51896.91;;;-142.34;27.77
12951;BME280;6540;50.858;7.232;2023-03-05T09:30:35;51882.78;;;-142.34;29.07
12951;BME280;6540;50.858;7.232;2023-03-05T09:33:01;51907.00;;;-142.34;28.71
12951;BME280;6540;50.858;7.232;2023-03-05T09:35:27;51915.06;;;-142.34;27.13
12951;BME280;6540;50.858;7.232;2023-03-05T09:37:52;51923.13;;;-142.34;28.43
12951;BME280;6540;50.858;7.232;2023-03-05T09:40:19;51904.97;;;-142.34;28.79
12951;BME280;6540;50.858;7.232;2023-03-05T09:42:53;51840.41;;;-142.34;30.79
12951;BME280;6540;50.858;7.232;2023-03-05T09:45:26;51876.72;;;-142.34;29.13
12951;BME280;6540;50.858;7.232;2023-03-05T09:50:50;51880.78;;;-142.34;29.24
12951;BME280;6540;50.858;7.232;2023-03-05T09:54:09;51921.13;;;-142.34;29.53
12951;BME280;6540;50.858;7.232;2023-03-05T09:56:35;51915.06;;;-142.34;29.48
12951;BME280;6540;50.858;7.232;2023-03-05T09:59:20;51866.66;;;-142.34;29.21
12951;BME280;6540;50.858;7.232;2023-03-05T10:01:50;51896.91;;;-142.34;28.39
12951;BME280;6540;50.858;7.232;2023-03-05T10:06:55;51898.94;;;-142.34;28.89
12951;BME280;6540;50.858;7.232;2023-03-05T10:14:53;51862.63;;;-142.34;28.47
12951;BME280;6540;50.858;7.232;2023-03-05T10:17:33;51909.00;;;-142.34;28.90
12951;BME280;6540;50.858;7.232;2023-03-05T10:28:17;51911.03;;;-142.34;28.02
12951;BME280;6540;50.858;7.232;2023-03-05T10:46:56;51915.06;;;-142.34;27.47
12951;BME280;6540;50.858;7.232;2023-03-05T10:49:35;51878.75;;;-142.34;29.09
12951;BME280;6540;50.858;7.232;2023-03-05T10:52:12;51923.13;;;-142.34;28.10
12951;BME280;6540;50.858;7.232;2023-03-05T10:54:40;51898.94;;;-142.34;28.84
12951;BME280;6540;50.858;7.232;2023-03-05T10:57:19;51850.50;;;-142.34;29.00
12951;BME280;6540;50.858;7.232;2023-03-05T11:02:19;51902.97;;;-142.34;29.67
12951;BME280;6540;50.858;7.232;2023-03-05T11:04:45;51915.06;;;-142.34;29.63
12951;BME280;6540;50.858;7.232;2023-03-05T11:09:39;51921.13;;;-142.34;30.46
12951;BME280;6540;50.858;7.232;2023-03-05T11:12:14;51911.03;;;-142.34;29.49
12951;BME280;6540;50.858;7.232;2023-03-05T11:23:21;51913.03;;;-142.34;29.34
12951;BME280;6540;50.858;7.232;2023-03-05T11:28:21;51890.84;;;-142.34;30.14
12951;BME280;6540;50.858;7.232;2023-03-05T11:31:02;51909.00;;;-142.34;30.56
12951;BME280;6540;50.858;7.232;2023-03-05T11:33:29;51931.19;;;-142.34;29.12
12951;BME280;6540;50.858;7.232;2023-03-05T11:36:20;51880.78;;;-142.34;29.59
12951;BME280;6540;50.858;7.232;2023-03-05T11:38:55;51870.69;;;-142.34;28.49
12951;BME280;6540;50.858;7.232;2023-03-05T11:41:30;51884.81;;;-142.34;28.74
12951;BME280;6540;50.858;7.232;2023-03-05T11:43:58;51919.09;;;-142.34;30.35
12951;BME280;6540;50.858;7.232;2023-03-05T11:46:29;51921.13;;;-142.34;29.04
12951;BME280;6540;50.858;7.232;2023-03-05T11:48:58;51919.09;;;-142.34;27.86
12951;BME280;6540;50.858;7.232;2023-03-05T11:51:40;51904.97;;;-142.34;29.43
12951;BME280;6540;50.858;7.232;2023-03-05T11:54:13;51874.72;;;-142.34;30.65
12951;BME280;6540;50.858;7.232;2023-03-05T11:56:41;51878.75;;;-142.34;30.46
12951;BME280;6540;50.858;7.232;2023-03-05T11:59:19;51870.69;;;-142.34;29.54
12951;BME280;6540;50.858;7.232;2023-03-05T12:01:50;51846.47;;;-142.34;29.56
12951;BME280;6540;50.858;7.232;2023-03-05T12:04:17;51900.94;;;-142.34;28.86
12951;BME280;6540;50.858;7.232;2023-03-05T12:06:53;51862.63;;;-142.34;27.59
12951;BME280;6540;50.858;7.232;2023-03-05T12:09:40;51868.66;;;-142.34;27.95
12951;BME280;6540;50.858;7.232;2023-03-05T12:13:10;51866.66;;;-142.34;30.01
12951;BME280;6540;50.858;7.232;2023-03-05T12:18:03;51898.94;;;-142.34;29.57
12951;BME280;6540;50.858;7.232;2023-03-05T12:23:15;51894.88;;;-142.34;29.77
12951;BME280;6540;50.858;7.232;2023-03-05T12:25:56;51870.69;;;-142.34;29.02
12951;BME280;6540;50.858;7.232;2023-03-05T12:30:59;51874.72;;;-142.34;30.58
12951;BME280;6540;50.858;7.232;2023-03-05T12:33:39;51898.94;;;-142.34;30.48
12951;BME280;6540;50.858;7.232;2023-03-05T12:46:45;51931.19;;;-142.34;29.96
12951;BME280;6540;50.858;7.232;2023-03-05T12:51:55;51894.88;;;-142.34;28.66
12951;BME280;6540;50.858;7.232;2023-03-05T12:56:49;51925.16;;;-142.34;30.50
12951;BME280;6540;50.858;7.232;2023-03-05T12:59:19;51878.75;;;-142.34;27.87
12951;BME280;6540;50.858;7.232;2023-03-05T13:01:59;51909.00;;;-142.34;28.98
12951;BME280;6540;50.858;7.232;2023-03-05T13:04:30;51907.00;;;-142.34;30.14
12951;BME280;6540;50.858;7.232;2023-03-05T13:06:58;51915.06;;;-142.34;30.38
12951;BME280;6540;50.858;7.232;2023-03-05T13:09:26;51907.00;;;-142.34;29.83
12951;BME280;6540;50.858;7.232;2023-03-05T13:11:54;51886.81;;;-142.34;30.28
12951;BME280;6540;50.858;7.232;2023-03-05T13:17:33;51894.88;;;-142.34;27.43
12951;BME280;6540;50.858;7.232;2023-03-05T13:20:01;51915.06;;;-142.34;27.87
12951;BME280;6540;50.858;7.232;2023-03-05T13:22:30;51915.06;;;-142.34;28.55
12951;BME280;6540;50.858;7.232;2023-03-05T13:25:03;51904.97;;;-142.34;29.85
12951;BME280;6540;50.858;7.232;2023-03-05T13:27:34;51890.84;;;-142.34;31.09
12951;BME280;6540;50.858;7.232;2023-03-05T13:30:00;51878.75;;;-142.34;29.63
12951;BME280;6540;50.858;7.232;2023-03-05T13:32:27;51878.75;;;-142.34;28.74
12951;BME280;6540;50.858;7.232;2023-03-05T13:34:55;51907.00;;;-142.34;28.96
12951;BME280;6540;50.858;7.232;2023-03-05T13:37:42;51931.19;;;-142.34;28.57
12951;BME280;6540;50.858;7.232;2023-03-05T13:40:28;51888.84;;;-142.34;28.44
12951;BME280;6540;50.858;7.232;2023-03-05T13:43:08;51858.56;;;-142.34;30.11
12951;BME280;6540;50.858;7.232;2023-03-05T13:45:33;51896.91;;;-142.34;30.22
12951;BME280;6540;50.858;7.232;2023-03-05T13:48:01;51864.63;;;-142.34;30.12
12951;BME280;6540;50.858;7.232;2023-03-05T13:50:30;51886.81;;;-142.34;30.63
12951;BME280;6540;50.858;7.232;2023-03-05T13:53:22;51874.72;;;-142.34;29.36
12951;BME280;6540;50.858;7.232;2023-03-05T13:55:49;51902.97;;;-142.34;29.51
12951;BME280;6540;50.858;7.232;2023-03-05T13:58:41;51874.72;;;-142.34;30.10
12951;BME280;6540;50.858;7.232;2023-03-05T14:01:34;51888.84;;;-142.34;29.25
12951;BME280;6540;50.858;7.232;2023-03-05T14:07:05;51907.00;;;-142.34;29.75
12951;BME280;6540;50.858;7.232;2023-03-05T14:09:43;51915.06;;;-142.34;28.65
12951;BME280;6540;50.858;7.232;2023-03-05T14:14:55;51913.03;;;-142.34;28.39
12951;BME280;6540;50.858;7.232;2023-03-05T14:17:35;51896.91;;;-142.34;29.87
12951;BME280;6540;50.858;7.232;2023-03-05T14:20:22;51904.97;;;-142.34;29.40